Time;durP1;ratioP1;P1;durP2;ratioP2;P2;SDS_P1;SDS_P2;PMS_P1;PMS_P2;Temp;Humidity;BMP_temperature;BMP_pressure;BME280_temperature;BME280_humidity;BME280_pressure;Samples;Min_cycle;Max_cycle;Signal;HPM_P1;HPM_P2
2022/07/01 00:00:19;;;;;;;5.87;5.20;;;;;;;23.71;64.57;94837.06;5055872;28;20453;-83
2022/07/01 00:02:47;;;;;;;5.97;5.43;;;;;;;23.66;65.67;94852.91;5056066;28;20442;-83
2022/07/01 00:05:14;;;;;;;6.10;5.40;;;;;;;23.62;66.63;94849.84;5055853;28;20957;-83
2022/07/01 00:07:41;;;;;;;7.13;5.30;;;;;;;23.62;66.08;94841.00;5055898;28;20671;-84
2022/07/01 00:10:09;;;;;;;5.10;4.70;;;;;;;23.57;65.41;94835.44;5056538;28;20442;-84
2022/07/01 00:12:35;;;;;;;8.73;5.73;;;;;;;23.47;65.14;94836.69;5060110;28;20437;-84
2022/07/01 00:15:03;;;;;;;6.20;5.70;;;;;;;23.46;65.13;94837.72;5060862;28;20449;-81
2022/07/01 00:17:30;;;;;;;5.83;5.13;;;;;;;23.46;64.83;94840.41;5056111;28;20505;-84
2022/07/01 00:19:58;;;;;;;6.07;5.57;;;;;;;23.43;65.49;94843.50;5055764;28;20476;-82
2022/07/01 00:22:27;;;;;;;6.03;5.53;;;;;;;23.39;65.18;94844.94;5055307;28;20857;-83
2022/07/01 00:24:54;;;;;;;6.27;5.77;;;;;;;23.33;65.53;94853.81;5055832;28;20823;-84
2022/07/01 00:27:21;;;;;;;5.87;5.37;;;;;;;23.23;65.29;94857.97;5055626;28;20454;-84
2022/07/01 00:29:48;;;;;;;6.07;5.53;;;;;;;23.11;65.80;94860.44;5055464;28;20503;-83
2022/07/01 00:32:15;;;;;;;7.83;5.17;;;;;;;23.22;65.91;94861.66;5055581;28;20452;-84
2022/07/01 00:34:42;;;;;;;6.17;5.57;;;;;;;23.23;66.14;94853.44;5036060;28;21077;-84
2022/07/01 00:37:10;;;;;;;5.60;5.20;;;;;;;23.27;66.17;94851.16;5055470;28;20823;-84
2022/07/01 00:39:37;;;;;;;5.70;4.53;;;;;;;23.28;66.22;94850.94;5020185;28;20441;-83
2022/07/01 00:42:05;;;;;;;7.90;5.80;;;;;;;23.23;66.21;94853.44;5055270;28;20453;-83
2022/07/01 00:44:32;;;;;;;8.90;5.43;;;;;;;23.15;66.35;94859.00;5055269;28;20819;-83
2022/07/01 00:47:02;;;;;;;6.67;6.07;;;;;;;23.03;66.65;94856.13;5054938;28;20442;-84
2022/07/01 00:49:30;;;;;;;6.70;6.00;;;;;;;22.99;67.21;94859.44;5055221;28;20495;-83
2022/07/01 00:51:58;;;;;;;6.80;6.20;;;;;;;22.83;67.61;94864.16;5055020;28;20665;-83
2022/07/01 00:54:27;;;;;;;10.87;6.50;;;;;;;22.82;67.71;94867.84;5054931;28;20500;-83
2022/07/01 00:56:54;;;;;;;8.73;6.00;;;;;;;22.71;68.34;94862.28;5054845;28;20493;-84
2022/07/01 00:59:21;;;;;;;13.23;6.20;;;;;;;22.75;68.45;94860.84;5054925;28;20508;-84
2022/07/01 01:01:48;;;;;;;12.70;6.77;;;;;;;22.69;68.55;94857.13;5054728;28;20430;-81
2022/07/01 01:04:16;;;;;;;8.53;6.17;;;;;;;22.65;68.18;94866.59;5052857;28;20549;-84
2022/07/01 01:06:43;;;;;;;6.70;6.10;;;;;;;22.62;68.91;94864.34;5054537;28;20442;-85
2022/07/01 01:09:09;;;;;;;6.50;6.00;;;;;;;22.60;69.14;94866.41;5054440;28;20438;-84
2022/07/01 01:11:38;;;;;;;7.50;5.90;;;;;;;22.63;68.90;94866.00;5054725;28;20449;-82
2022/07/01 01:14:05;;;;;;;6.60;6.10;;;;;;;22.63;69.07;94859.81;5054647;28;20447;-84
2022/07/01 01:16:33;;;;;;;6.87;6.37;;;;;;;22.43;70.58;94865.13;5054880;28;20446;-82
2022/07/01 01:19:02;;;;;;;10.17;7.00;;;;;;;22.39;71.25;94867.41;5054874;28;20489;-84
2022/07/01 01:21:30;;;;;;;6.93;6.30;;;;;;;22.39;71.45;94871.91;5054893;28;20484;-84
2022/07/01 01:23:58;;;;;;;7.53;6.70;;;;;;;22.04;73.43;94861.34;5054859;28;20442;-84
2022/07/01 01:26:25;;;;;;;7.53;6.60;;;;;;;22.16;72.85;94857.06;5054699;28;20509;-83
2022/07/01 01:28:53;;;;;;;6.43;5.30;;;;;;;22.24;72.67;94856.88;5054653;28;20453;-84
2022/07/01 01:31:29;;;;;;;9.43;6.20;;;;;;;22.29;72.12;94855.47;5003167;28;20445;-85
2022/07/01 01:33:56;;;;;;;6.60;6.00;;;;;;;22.32;71.78;94861.22;5054038;28;20792;-85
2022/07/01 01:36:24;;;;;;;7.07;6.57;;;;;;;22.39;71.33;94859.38;5054299;28;20446;-82
2022/07/01 01:38:52;;;;;;;7.10;5.90;;;;;;;22.41;71.02;94861.84;5054186;28;20482;-84
2022/07/01 01:41:19;;;;;;;6.30;5.80;;;;;;;22.37;71.14;94860.59;5035244;28;20446;-84
2022/07/01 01:43:47;;;;;;;6.57;6.00;;;;;;;22.40;71.24;94866.38;5054277;28;20450;-82
2022/07/01 01:46:14;;;;;;;6.67;6.07;;;;;;;22.43;71.74;94862.47;5054103;28;20446;-85
2022/07/01 01:48:41;;;;;;;6.50;5.80;;;;;;;22.42;71.83;94861.63;5053978;28;20853;-84
2022/07/01 01:51:08;;;;;;;8.63;6.30;;;;;;;22.43;71.84;94859.78;5068486;28;20431;-84
2022/07/01 01:53:35;;;;;;;7.90;6.30;;;;;;;22.43;71.43;94857.13;5053752;28;20503;-84
2022/07/01 01:56:03;;;;;;;7.17;6.43;;;;;;;22.39;71.85;94855.88;5054011;28;20435;-81
2022/07/01 01:58:30;;;;;;;6.23;5.57;;;;;;;22.27;71.87;94854.84;5054086;28;20482;-84
2022/07/01 02:00:57;;;;;;;8.40;6.67;;;;;;;22.17;71.91;94864.06;5053918;28;20442;-83
2022/07/01 02:03:24;;;;;;;7.80;5.50;;;;;;;22.03;72.05;94867.69;5068293;28;20456;-82
2022/07/01 02:05:51;;;;;;;10.03;5.80;;;;;;;21.97;72.08;94863.13;5053361;28;20894;-84
2022/07/01 02:08:18;;;;;;;6.37;5.87;;;;;;;21.91;72.63;94863.94;5054292;28;20761;-85
2022/07/01 02:10:45;;;;;;;6.33;5.73;;;;;;;21.82;73.01;94859.81;5053347;28;20963;-84
2022/07/01 02:13:13;;;;;;;6.57;5.97;;;;;;;21.85;73.20;94867.41;5053748;28;20460;-84
2022/07/01 02:15:40;;;;;;;6.07;5.50;;;;;;;21.73;73.69;94871.69;5053814;28;20454;-84
2022/07/01 02:18:07;;;;;;;8.23;6.60;;;;;;;21.86;73.65;94874.41;5053117;28;20544;-84
2022/07/01 02:20:34;;;;;;;6.77;5.83;;;;;;;21.87;73.31;94876.06;5052851;28;20430;-83
2022/07/01 02:23:01;;;;;;;8.77;6.73;;;;;;;21.87;73.35;94873.38;5053445;28;20454;-83
2022/07/01 02:25:28;;;;;;;6.90;6.20;;;;;;;21.87;73.37;94876.88;5053103;28;20449;-84
2022/07/01 02:27:57;;;;;;;7.17;6.33;;;;;;;21.85;73.83;94886.13;5053787;28;20900;-84
2022/07/01 02:30:26;;;;;;;9.50;6.17;;;;;;;21.56;75.15;94890.72;5053256;28;20454;-84
2022/07/01 02:32:53;;;;;;;13.33;6.60;;;;;;;21.39;76.01;94884.03;5053050;28;20815;-85
2022/07/01 02:35:20;;;;;;;5.93;5.43;;;;;;;21.56;75.94;94900.56;5053320;28;20488;-85
2022/07/01 02:37:47;;;;;;;6.60;6.00;;;;;;;21.56;75.75;94893.38;5052751;28;20478;-83
2022/07/01 02:40:14;;;;;;;8.70;5.73;;;;;;;21.66;75.72;94903.69;5053000;28;20789;-83
2022/07/01 02:42:41;;;;;;;6.00;5.50;;;;;;;21.73;75.45;94906.41;5052591;28;20453;-84
2022/07/01 02:45:09;;;;;;;8.00;5.93;;;;;;;21.76;75.40;94909.50;5053142;28;20441;-83
2022/07/01 02:47:38;;;;;;;8.00;6.50;;;;;;;21.81;75.33;94912.41;5018034;28;20527;-84
2022/07/01 02:50:07;;;;;;;7.87;6.60;;;;;;;21.83;75.20;94906.88;5052637;28;20448;-84
2022/07/01 02:52:35;;;;;;;23.83;7.47;;;;;;;21.82;75.18;94907.91;5052531;28;20446;-84
2022/07/01 02:55:02;;;;;;;7.90;7.10;;;;;;;21.80;75.10;94913.44;5052960;28;20855;-84
2022/07/01 02:57:29;;;;;;;13.93;6.77;;;;;;;21.81;75.23;94917.75;5033613;28;20508;-82
2022/07/01 02:59:56;;;;;;;15.23;6.23;;;;;;;21.77;75.46;94919.19;5052708;28;20573;-84
2022/07/01 03:02:23;;;;;;;6.80;6.10;;;;;;;21.69;75.41;94919.34;5052486;28;20438;-84
2022/07/01 03:04:53;;;;;;;8.20;7.50;;;;;;;21.67;75.53;94917.88;5052238;28;20443;-83
2022/07/01 03:07:21;;;;;;;7.97;7.17;;;;;;;21.61;75.78;94917.66;5052521;28;20951;-83
2022/07/01 03:09:48;;;;;;;10.00;6.77;;;;;;;21.62;75.95;94921.97;5052584;28;20426;-83
2022/07/01 03:12:28;;;;;;;8.60;6.50;;;;;;;21.65;75.99;94934.91;5052597;28;20446;-83
2022/07/01 03:14:57;;;;;;;8.33;6.67;;;;;;;21.66;75.99;94935.75;5052284;28;20450;-82
2022/07/01 03:17:24;;;;;;;7.33;6.30;;;;;;;21.71;76.00;94937.84;5052334;28;20941;-83
2022/07/01 03:19:53;;;;;;;8.03;7.33;;;;;;;21.73;75.87;94946.50;5066817;28;20438;-82
2022/07/01 03:22:21;;;;;;;17.07;7.90;;;;;;;21.70;75.71;94942.38;5052104;28;20504;-83
2022/07/01 03:24:49;;;;;;;7.97;7.23;;;;;;;21.73;75.97;94941.97;5016919;28;20449;-83
2022/07/01 03:27:16;;;;;;;10.43;6.60;;;;;;;21.77;75.80;94937.88;5052290;28;20958;-82
2022/07/01 03:29:43;;;;;;;9.80;6.60;;;;;;;21.85;75.75;94934.22;5050311;28;20865;-82
2022/07/01 03:32:10;;;;;;;9.00;7.00;;;;;;;21.94;75.28;94933.00;5051935;28;20794;-82
2022/07/01 03:34:38;;;;;;;10.50;7.40;;;;;;;22.04;74.67;94943.38;5051984;28;20532;-83
2022/07/01 03:37:06;;;;;;;9.90;7.43;;;;;;;22.29;79.82;94941.84;5052197;28;20459;-83
2022/07/01 03:39:34;;;;;;;8.57;7.50;;;;;;;23.26;78.44;94949.41;5052070;28;20489;-86
2022/07/01 03:42:01;;;;;;;6.93;6.23;;;;;;;24.12;70.26;94940.41;5051846;28;20450;-82
2022/07/01 03:44:28;;;;;;;6.67;5.97;;;;;;;24.28;65.77;94951.47;5051945;28;20438;-84
2022/07/01 03:46:55;;;;;;;7.03;6.40;;;;;;;24.54;64.73;94947.84;5052228;28;20439;-83
2022/07/01 03:49:22;;;;;;;9.57;6.73;;;;;;;24.82;63.43;94943.97;5033215;28;20525;-83
2022/07/01 03:51:49;;;;;;;11.23;6.37;;;;;;;25.05;62.35;94949.63;5052225;28;20450;-83
2022/07/01 03:54:37;;;;;;;7.23;6.13;;;;;;;25.31;61.57;94946.72;5051894;28;20450;-82
2022/07/01 03:57:05;;;;;;;11.27;6.50;;;;;;;25.54;60.46;94945.28;5052075;28;20448;-83
2022/07/01 03:59:37;;;;;;;11.83;6.10;;;;;;;25.71;59.72;94943.69;5052120;28;20491;-83
2022/07/01 04:02:05;;;;;;;6.43;5.83;;;;;;;25.86;58.88;94946.03;5052032;28;20441;-83
2022/07/01 04:04:33;;;;;;;8.80;7.30;;;;;;;25.92;58.46;94943.28;5056362;28;20471;-83
2022/07/01 04:07:01;;;;;;;8.73;5.33;;;;;;;26.01;58.20;94940.28;5054001;28;20447;-83
2022/07/01 04:09:31;;;;;;;7.07;6.30;;;;;;;26.04;58.28;94942.53;5051976;28;20476;-83
2022/07/01 04:11:58;;;;;;;9.40;6.77;;;;;;;26.11;58.06;94952.16;5051465;28;20440;-83
2022/07/01 04:14:25;;;;;;;6.67;6.10;;;;;;;26.15;57.28;94949.84;5052009;28;20452;-83
2022/07/01 04:16:53;;;;;;;6.43;5.67;;;;;;;26.13;57.28;94947.38;5052043;28;20506;-83
2022/07/01 04:19:20;;;;;;;6.23;5.70;;;;;;;26.19;57.26;94949.16;5051690;28;20485;-84
2022/07/01 04:24:33;;;;;;;21.47;7.20;;;;;;;26.39;56.56;94943.59;5052326;28;20456;-87
2022/07/01 04:27:01;;;;;;;16.73;6.17;;;;;;;26.48;56.87;94958.38;5052136;28;20480;-87
2022/07/01 04:29:30;;;;;;;8.63;6.97;;;;;;;26.64;56.36;94956.09;5052249;28;20458;-87
2022/07/01 04:31:57;;;;;;;6.73;6.13;;;;;;;26.84;55.70;94959.31;5052106;28;20454;-89
2022/07/01 04:34:24;;;;;;;7.80;6.10;;;;;;;26.97;55.08;94952.94;5052232;28;20491;-89
2022/07/01 04:36:51;;;;;;;7.77;6.30;;;;;;;27.11;54.49;94960.59;5052468;28;20437;-88
2022/07/01 04:39:18;;;;;;;7.30;6.70;;;;;;;27.19;54.28;94961.34;5051988;28;20473;-85
2022/07/01 04:44:38;;;;;;;6.13;5.60;;;;;;;27.38;53.60;94965.59;5032774;28;20953;-85
2022/07/01 04:47:05;;;;;;;6.73;5.80;;;;;;;27.49;53.84;94964.78;5032724;28;20949;-84
2022/07/01 04:49:33;;;;;;;7.20;6.53;;;;;;;27.70;53.29;94958.84;5032690;28;20452;-85
2022/07/01 04:52:00;;;;;;;11.77;6.20;;;;;;;27.89;53.04;94956.03;5032907;28;20435;-86
2022/07/01 04:54:27;;;;;;;8.67;6.30;;;;;;;28.15;52.06;94971.72;5032972;28;20458;-86
2022/07/01 04:56:56;;;;;;;7.40;6.63;;;;;;;28.41;51.93;94961.50;5033177;28;20442;-87
2022/07/01 04:59:23;;;;;;;7.93;6.47;;;;;;;28.57;51.16;94960.72;5032801;28;20989;-85
2022/07/01 05:01:50;;;;;;;7.27;6.03;;;;;;;28.77;50.38;94961.13;5033335;28;20444;-88
2022/07/01 05:04:17;;;;;;;8.60;7.90;;;;;;;29.06;50.60;94966.53;5032950;28;20457;-86
2022/07/01 05:06:44;;;;;;;13.20;12.10;;;;;;;29.33;50.04;94961.34;5032908;28;20427;-85
2022/07/01 05:09:11;;;;;;;9.30;8.30;;;;;;;29.63;49.90;94963.75;5033129;28;20456;-92
2022/07/01 05:11:39;;;;;;;18.50;7.77;;;;;;;29.80;49.22;94962.69;5034034;28;20466;-89
2022/07/01 05:14:08;;;;;;;8.27;6.50;;;;;;;29.67;49.07;94967.59;5033759;28;20446;-91
2022/07/01 05:16:35;;;;;;;12.50;7.63;;;;;;;28.94;50.12;94970.13;5033029;28;20446;-86
2022/07/01 05:21:57;;;;;;;8.33;6.67;;;;;;;28.85;51.64;94962.63;5048796;28;20444;-86
2022/07/01 05:24:25;;;;;;;8.70;6.80;;;;;;;29.04;51.45;94965.97;5054985;28;20435;-86
2022/07/01 05:26:52;;;;;;;10.40;6.67;;;;;;;29.17;50.74;94971.06;5054356;28;20448;-83
2022/07/01 05:29:20;;;;;;;17.87;9.07;;;;;;;29.46;53.75;94964.56;5054378;28;20481;-82
2022/07/01 05:31:47;;;;;;;14.47;6.23;;;;;;;29.93;51.94;94961.50;5054161;28;20456;-83
2022/07/01 05:34:14;;;;;;;8.80;6.67;;;;;;;30.18;49.67;94953.75;5053968;28;20471;-83
2022/07/01 05:36:41;;;;;;;8.67;6.30;;;;;;;30.37;50.49;94958.88;5054154;28;20508;-83
2022/07/01 05:39:08;;;;;;;9.97;7.17;;;;;;;30.52;50.25;94965.28;5052114;28;20489;-83
2022/07/01 05:41:36;;;;;;;8.70;7.00;;;;;;;30.51;50.02;94965.56;5053602;28;20449;-84
2022/07/01 05:44:03;;;;;;;7.63;6.53;;;;;;;30.52;48.82;94961.78;5038476;28;20435;-83
2022/07/01 05:46:31;;;;;;;17.47;7.63;;;;;;;30.51;48.93;94962.84;5053713;28;20445;-84
2022/07/01 05:48:58;;;;;;;16.70;6.87;;;;;;;30.62;49.09;94964.63;5053922;28;20454;-82
2022/07/01 05:51:25;;;;;;;7.37;6.50;;;;;;;30.72;49.44;94970.19;5053692;28;20442;-83
2022/07/01 05:53:52;;;;;;;9.37;6.57;;;;;;;30.92;50.84;94963.31;5053734;28;20442;-85
2022/07/01 05:56:20;;;;;;;6.87;6.10;;;;;;;31.27;50.27;94966.44;5053793;28;20448;-83
2022/07/01 05:58:46;;;;;;;10.50;6.60;;;;;;;31.53;47.01;94970.19;5051255;28;20491;-84
2022/07/01 06:01:13;;;;;;;10.37;6.60;;;;;;;31.56;47.60;94960.72;5053434;28;20809;-82
2022/07/01 06:03:42;;;;;;;8.30;6.43;;;;;;;31.50;47.97;94969.88;5053687;28;20445;-84
2022/07/01 06:06:09;;;;;;;9.20;6.63;;;;;;;31.03;48.55;94971.31;5052863;28;20452;-83
2022/07/01 06:08:36;;;;;;;12.10;7.70;;;;;;;30.89;49.21;94966.53;5053283;28;20446;-86
2022/07/01 06:11:03;;;;;;;12.97;7.20;;;;;;;30.36;49.65;94966.19;5051467;28;20465;-86
2022/07/01 06:13:30;;;;;;;10.80;6.70;;;;;;;30.26;49.14;94962.50;5053350;28;21011;-85
2022/07/01 06:15:58;;;;;;;10.10;6.90;;;;;;;30.00;51.02;94967.53;5054624;28;20507;-89
2022/07/01 06:18:25;;;;;;;10.50;7.10;;;;;;;29.59;51.34;94972.34;5055627;28;21152;-86
2022/07/01 06:20:54;;;;;;;12.67;7.40;;;;;;;29.15;52.82;94970.47;5054190;28;21024;-85
2022/07/01 06:23:21;;;;;;;13.13;7.23;;;;;;;28.93;54.09;94973.06;5053472;28;20449;-88
2022/07/01 06:25:48;;;;;;;10.30;6.30;;;;;;;29.13;54.03;94972.59;5053557;28;20502;-86
2022/07/01 06:28:15;;;;;;;22.10;7.50;;;;;;;29.47;53.41;94979.72;5053704;28;20447;-87
2022/07/01 06:30:44;;;;;;;10.10;5.90;;;;;;;29.88;52.76;94980.38;5053682;28;20452;-88
2022/07/01 06:33:14;;;;;;;10.30;7.43;;;;;;;30.00;52.26;94983.78;5053774;28;20450;-87
2022/07/01 06:35:41;;;;;;;7.20;6.50;;;;;;;30.40;51.44;94971.91;5053695;28;20488;-88
2022/07/01 06:38:09;;;;;;;21.00;7.97;;;;;;;30.43;51.12;94979.53;5053930;28;20442;-87
2022/07/01 06:40:36;;;;;;;7.57;6.43;;;;;;;30.56;50.03;94976.44;5053983;28;20474;-88
2022/07/01 06:43:03;;;;;;;7.77;6.57;;;;;;;30.53;50.35;94976.94;5053301;28;20521;-87
2022/07/01 06:45:31;;;;;;;8.83;7.30;;;;;;;30.59;50.34;94975.13;5053943;28;20446;-87
2022/07/01 06:47:58;;;;;;;7.47;6.57;;;;;;;30.12;50.29;94973.72;5053661;28;20438;-87
2022/07/01 06:50:25;;;;;;;9.80;6.90;;;;;;;30.40;51.18;94972.75;5053594;28;20457;-87
2022/07/01 06:52:51;;;;;;;10.17;7.80;;;;;;;30.56;50.13;94973.72;5053749;28;20450;-89
2022/07/01 06:55:20;;;;;;;20.07;7.70;;;;;;;30.72;49.08;94970.19;5052981;28;20450;-88
2022/07/01 06:57:47;;;;;;;8.03;7.33;;;;;;;30.67;49.71;94970.13;5053313;28;20452;-87
2022/07/01 07:00:15;;;;;;;8.67;7.33;;;;;;;30.64;50.10;94967.88;5052737;28;20473;-89
2022/07/01 07:02:42;;;;;;;7.93;6.50;;;;;;;30.83;50.33;94971.09;5053432;28;20452;-89
2022/07/01 07:05:10;;;;;;;7.30;6.60;;;;;;;30.86;49.14;94977.91;5052738;28;20450;-88
2022/07/01 07:07:37;;;;;;;11.60;7.67;;;;;;;30.76;50.27;94974.00;5053090;28;20449;-87
2022/07/01 07:10:05;;;;;;;8.10;6.33;;;;;;;30.87;50.34;94976.81;5052908;28;20430;-88
2022/07/01 07:12:33;;;;;;;9.70;6.60;;;;;;;31.19;50.56;94975.03;5053230;28;20962;-86
2022/07/01 07:15:00;;;;;;;11.53;6.80;;;;;;;31.11;48.02;94973.56;5052930;28;20455;-87
2022/07/01 07:17:27;;;;;;;15.27;6.90;;;;;;;31.24;47.65;94975.09;5052886;28;20451;-87
2022/07/01 07:19:55;;;;;;;10.70;6.53;;;;;;;30.88;50.63;94973.03;5052873;28;20480;-86
2022/07/01 07:22:22;;;;;;;10.87;7.07;;;;;;;30.66;48.54;94973.91;5052872;28;20476;-85
2022/07/01 07:24:49;;;;;;;8.90;6.73;;;;;;;30.59;48.33;94975.94;5017678;28;20454;-87
2022/07/01 07:27:16;;;;;;;11.33;7.40;;;;;;;30.46;48.41;94957.38;5052519;28;20444;-85
2022/07/01 07:29:44;;;;;;;38.43;13.97;;;;;;;30.72;48.05;94972.88;5052820;28;20445;-86
2022/07/01 07:32:11;;;;;;;11.50;6.57;;;;;;;30.84;50.62;94980.88;5033983;28;20913;-83
2022/07/01 07:34:38;;;;;;;9.03;6.80;;;;;;;31.08;47.80;94970.56;5052256;28;21044;-87
2022/07/01 07:37:05;;;;;;;10.00;7.13;;;;;;;31.33;47.37;94976.25;5052654;28;20793;-90
2022/07/01 07:39:32;;;;;;;7.33;5.73;;;;;;;31.48;47.15;94975.56;5052682;28;20488;-88
2022/07/01 07:41:59;;;;;;;8.47;6.73;;;;;;;31.46;43.42;94971.47;5052384;28;20442;-85
2022/07/01 07:44:26;;;;;;;8.90;6.87;;;;;;;31.16;45.49;94967.41;5052075;28;20450;-86
2022/07/01 07:46:56;;;;;;;17.63;7.80;;;;;;;31.36;46.65;94964.88;5017461;28;20518;-87
2022/07/01 07:49:23;;;;;;;7.13;6.43;;;;;;;31.69;46.74;94957.56;5034475;28;20482;-86
2022/07/01 07:51:50;;;;;;;7.63;6.83;;;;;;;31.39;47.13;94968.97;5052624;28;20447;-87
2022/07/01 07:54:18;;;;;;;11.43;7.40;;;;;;;31.29;47.60;94966.19;5052453;28;20450;-86
2022/07/01 07:56:45;;;;;;;8.70;6.33;;;;;;;31.63;47.96;94964.03;5052936;28;20457;-87
2022/07/01 07:59:12;;;;;;;7.97;6.57;;;;;;;31.71;47.99;94960.84;5058409;28;20507;-86
2022/07/01 08:01:39;;;;;;;11.90;7.33;;;;;;;31.83;44.80;94968.84;5061116;28;20450;-88
2022/07/01 08:04:07;;;;;;;8.50;6.37;;;;;;;32.05;45.40;94956.75;5054040;28;20454;-86
2022/07/01 08:06:34;;;;;;;7.33;6.60;;;;;;;32.09;45.68;94950.78;5052416;28;20579;-88
2022/07/01 08:09:01;;;;;;;12.80;6.43;;;;;;;32.29;45.43;94961.78;5033506;28;20856;-90
2022/07/01 08:11:28;;;;;;;12.60;7.37;;;;;;;32.54;45.83;94956.47;5052634;28;20460;-87
2022/07/01 08:13:55;;;;;;;9.07;6.63;;;;;;;32.54;45.29;94959.19;5052665;28;20440;-85
2022/07/01 08:16:22;;;;;;;16.30;7.93;;;;;;;32.51;43.51;94945.34;5052085;28;20451;-83
2022/07/01 08:18:49;;;;;;;7.10;6.27;;;;;;;32.21;44.43;94948.69;5055746;28;20459;-86
2022/07/01 08:21:17;;;;;;;10.43;6.93;;;;;;;31.95;45.33;94945.81;5056285;28;20437;-88
2022/07/01 08:23:44;;;;;;;10.30;6.70;;;;;;;32.17;47.56;94942.97;5055769;28;20448;-86
2022/07/01 08:26:14;;;;;;;16.10;7.87;;;;;;;32.11;47.03;94943.22;5056145;28;20456;-86
2022/07/01 08:28:41;;;;;;;11.93;8.17;;;;;;;32.03;46.52;94945.31;5055930;28;20454;-85
2022/07/01 08:31:08;;;;;;;9.00;7.13;;;;;;;31.83;46.09;94950.66;5055979;28;20466;-84
2022/07/01 08:33:37;;;;;;;9.43;8.30;;;;;;;31.81;48.39;94938.41;5055693;28;20456;-86
2022/07/01 08:36:04;;;;;;;12.33;7.00;;;;;;;32.13;49.42;94950.03;5055578;28;20473;-86
2022/07/01 08:38:33;;;;;;;7.80;6.33;;;;;;;32.30;47.23;94938.97;5057108;28;20435;-87
2022/07/01 08:41:01;;;;;;;16.77;8.20;;;;;;;32.40;47.59;94930.91;5038005;28;20474;-85
2022/07/01 08:43:28;;;;;;;7.03;6.43;;;;;;;32.62;46.77;94933.41;5057141;28;20775;-85
2022/07/01 08:45:55;;;;;;;18.03;8.10;;;;;;;32.70;47.35;94929.38;5056757;28;20446;-84
2022/07/01 08:48:22;;;;;;;8.30;7.50;;;;;;;32.64;46.56;94929.34;5057119;28;20456;-85
2022/07/01 08:54:22;;;;;;;14.20;7.80;;;;;;;32.27;45.99;94936.81;5056577;28;20891;-84
2022/07/01 08:56:48;;;;;;;10.60;8.80;;;;;;;32.20;46.23;94938.91;5056059;28;20426;-83
2022/07/01 08:59:25;;;;;;;9.83;7.13;;;;;;;32.29;45.53;94937.34;5056428;28;20439;-80
2022/07/01 09:02:00;;;;;;;11.47;9.23;;;;;;;32.21;46.76;94940.53;5056249;28;20950;-79
2022/07/01 09:04:28;;;;;;;10.93;7.60;;;;;;;32.04;46.35;94935.28;5020994;28;20491;-80
2022/07/01 09:07:03;;;;;;;11.23;7.57;;;;;;;31.91;48.89;94933.88;5056583;28;20430;-83
2022/07/01 09:09:35;;;;;;;11.80;6.80;;;;;;;32.13;47.94;94944.59;5055691;28;20449;-80
2022/07/01 09:12:02;;;;;;;8.97;7.63;;;;;;;32.28;46.00;94935.72;5056043;28;20470;-84
2022/07/01 09:14:30;;;;;;;13.93;7.87;;;;;;;32.47;45.15;94934.19;5055665;28;20446;-81
2022/07/01 09:16:59;;;;;;;17.77;7.93;;;;;;;32.20;44.77;94933.47;5055743;28;20450;-81
2022/07/01 09:19:27;;;;;;;9.20;7.50;;;;;;;32.20;45.68;94937.00;5055768;28;20468;-81
2022/07/01 09:21:56;;;;;;;11.60;7.30;;;;;;;32.41;45.30;94924.38;5055612;28;20449;-78
2022/07/01 09:24:29;;;;;;;8.50;7.30;;;;;;;32.57;43.73;94923.34;5055492;28;20440;-80
2022/07/01 09:26:59;;;;;;;26.93;9.00;;;;;;;32.77;42.75;94924.50;5055862;28;20469;-84
2022/07/01 09:29:32;;;;;;;13.17;8.07;;;;;;;32.42;42.52;94927.91;5055021;28;20529;-82
2022/07/01 09:32:01;;;;;;;7.13;6.43;;;;;;;31.66;41.59;94925.50;5038023;28;20471;-81
2022/07/01 09:34:32;;;;;;;17.50;7.60;;;;;;;31.80;42.18;94937.56;5056045;28;20475;-83
2022/07/01 09:36:59;;;;;;;14.70;7.30;;;;;;;31.74;43.87;94928.59;5055587;28;20422;-81
2022/07/01 09:39:26;;;;;;;8.07;7.27;;;;;;;31.85;44.89;94931.38;5036287;28;20444;-80
2022/07/01 09:41:57;;;;;;;12.23;7.60;;;;;;;31.89;42.60;94922.44;5055063;28;20457;-82
2022/07/01 09:44:26;;;;;;;11.77;6.70;;;;;;;31.88;41.06;94920.00;5056278;28;20430;-81
2022/07/01 09:46:54;;;;;;;15.13;7.60;;;;;;;31.81;41.70;94914.81;5055658;28;20446;-81
2022/07/01 09:49:21;;;;;;;13.07;7.60;;;;;;;31.83;40.54;94912.66;5056825;28;20453;-84
2022/07/01 09:51:50;;;;;;;8.90;6.63;;;;;;;31.67;39.66;94916.28;5055045;28;20434;-83
2022/07/01 09:54:18;;;;;;;9.03;6.80;;;;;;;31.85;40.39;94913.19;5055043;28;20488;-83
2022/07/01 09:56:45;;;;;;;9.70;6.10;;;;;;;31.87;36.81;94908.31;5055188;28;20451;-82
2022/07/01 09:59:13;;;;;;;7.13;6.37;;;;;;;31.81;36.35;94901.25;5055474;28;20472;-80
2022/07/01 10:01:40;;;;;;;8.23;6.33;;;;;;;31.90;37.78;94906.97;5055128;28;20481;-82
2022/07/01 10:04:10;;;;;;;11.50;6.87;;;;;;;32.01;38.73;94904.03;5054609;28;20431;-82
2022/07/01 10:06:52;;;;;;;12.43;6.07;;;;;;;32.19;40.72;94891.94;5054704;28;20473;-82
2022/07/01 10:09:48;;;;;;;6.70;6.10;;;;;;;31.84;38.18;94894.47;5054865;28;20430;-81
2022/07/01 10:12:41;;;;;;;10.73;6.37;;;;;;;31.99;34.88;94898.06;5054804;28;20451;-81
2022/07/01 10:15:12;;;;;;;6.70;5.97;;;;;;;32.16;38.27;94895.19;5055163;28;20456;-81
2022/07/01 10:17:43;;;;;;;8.27;6.17;;;;;;;32.20;37.46;94898.19;5054365;28;20449;-81
2022/07/01 10:20:13;;;;;;;9.30;6.80;;;;;;;32.24;38.26;94885.69;5054481;28;20480;-82
2022/07/01 10:22:42;;;;;;;19.30;6.00;;;;;;;32.34;37.60;94880.31;5054859;28;20435;-83
2022/07/01 10:25:45;;;;;;;31.53;10.07;;;;;;;32.52;38.96;94882.56;5019771;28;20451;-82
2022/07/01 10:28:30;;;;;;;7.40;6.87;;;;;;;32.53;36.49;94878.75;5054121;28;20844;-83
2022/07/01 10:31:03;;;;;;;8.13;6.13;;;;;;;32.55;36.98;94878.50;5054716;28;20493;-83
2022/07/01 10:33:41;;;;;;;5.30;4.80;;;;;;;32.37;33.64;94870.81;5054429;28;20435;-83
2022/07/01 10:36:11;;;;;;;5.90;5.30;;;;;;;32.16;31.57;94875.34;5054360;28;20491;-83
2022/07/01 11:02:12;;;;;;;7.57;5.63;;;;;;;32.35;33.88;94854.78;5052634;28;20485;-81
2022/07/01 11:04:39;;;;;;;5.67;5.27;;;;;;;32.44;35.49;94858.66;5053588;28;20426;-81
2022/07/01 11:07:06;;;;;;;6.30;5.80;;;;;;;32.51;34.43;94858.38;5053997;28;20438;-81
2022/07/01 11:09:33;;;;;;;6.40;5.90;;;;;;;32.68;35.43;94856.25;5053891;28;20968;-82
2022/07/01 11:12:01;;;;;;;6.27;5.50;;;;;;;32.48;30.07;94858.91;5053940;28;20927;-80
2022/07/01 11:14:29;;;;;;;5.80;5.30;;;;;;;32.38;31.49;94856.97;5053688;28;20455;-81
2022/07/01 11:16:57;;;;;;;9.60;5.90;;;;;;;32.40;34.25;94849.41;5053742;28;20439;-83
2022/07/01 11:19:25;;;;;;;5.60;5.10;;;;;;;32.52;31.92;94846.44;5053494;28;20453;-82
2022/07/01 11:21:52;;;;;;;7.03;5.60;;;;;;;32.56;33.32;94851.06;5054233;28;20468;-80
2022/07/01 11:24:20;;;;;;;5.93;5.53;;;;;;;32.57;29.84;94841.00;5018801;28;20447;-80
2022/07/01 11:26:47;;;;;;;9.37;5.80;;;;;;;32.63;33.49;94840.75;5053804;28;20833;-82
2022/07/01 11:29:15;;;;;;;6.73;6.13;;;;;;;32.72;33.12;94851.91;5053567;28;20438;-79
2022/07/01 11:31:42;;;;;;;6.00;5.50;;;;;;;32.75;34.29;94842.41;5053639;28;20456;-82
2022/07/01 11:34:09;;;;;;;6.57;5.30;;;;;;;32.51;30.42;94842.91;5053511;28;20507;-80
2022/07/01 11:39:32;;;;;;;6.83;6.33;;;;;;;32.53;29.06;94831.75;5052288;28;20423;-82
2022/07/01 11:42:03;;;;;;;6.00;5.37;;;;;;;32.57;31.15;94839.09;5035789;28;20493;-84
2022/07/01 11:44:35;;;;;;;9.00;6.70;;;;;;;32.68;31.15;94834.53;5053432;28;20478;-81
2022/07/01 11:47:02;;;;;;;6.43;5.83;;;;;;;32.74;31.38;94827.19;5034945;28;20468;-83
2022/07/01 11:49:29;;;;;;;6.30;5.73;;;;;;;32.70;30.50;94816.03;5053346;28;20462;-82
2022/07/01 11:51:59;;;;;;;6.70;6.10;;;;;;;32.68;29.57;94823.66;5055432;28;20449;-82
2022/07/01 11:54:26;;;;;;;5.53;5.03;;;;;;;32.72;29.01;94834.78;5057450;28;20529;-83
2022/07/01 11:56:53;;;;;;;6.60;5.30;;;;;;;32.61;30.93;94823.88;5057384;28;20433;-81
2022/07/01 11:59:21;;;;;;;7.43;4.87;;;;;;;32.29;29.42;94815.13;5057375;28;20438;-83
2022/07/01 12:01:55;;;;;;;6.00;5.50;;;;;;;32.46;29.83;94821.16;5057505;28;20472;-81
2022/07/01 12:04:22;;;;;;;5.90;5.40;;;;;;;32.73;31.90;94814.69;5057003;28;20430;-79
2022/07/01 12:06:50;;;;;;;6.03;5.43;;;;;;;32.75;33.18;94812.50;5038643;28;20944;-83
2022/07/01 12:09:19;;;;;;;6.47;5.73;;;;;;;32.94;33.61;94808.19;5056876;28;20451;-83
2022/07/01 12:11:48;;;;;;;6.20;5.70;;;;;;;32.87;34.12;94816.63;5057415;28;20418;-82
2022/07/01 12:14:21;;;;;;;6.03;5.53;;;;;;;32.70;32.61;94798.91;5057175;28;20441;-81